Pagrindinis puslapis
METAR-TAF:

METAR-TAF

Oro uostai :

Tarauaka, Akrė, Brazilija

platuma: 08-10S, ilguma: 070-46W, Aukštis: 190 m

Dabartinis oras

Ataskaita buvo paskelbta 1 valandą ir 12 minutes, ne 16:00 UTC
Vėjas 6 kt iš Šiaurės/Šiaurės Vakarų, svyruoja nuo Vakarų ir Šiaurės
Temperatūra 31°C
Drėgmė 63%
Slėgis 1011 hPa
Matomumas 10 km arba daugiau
nėra debesų žemiau 1500 m ir nėra kamuolinių lietaus debesų

METAR: SBTK 221600Z AUTO 33006KT 280V360 CAVOK 31/23 Q1011

Laikas: 12:12 (17:12 UTC)


TAF: trūkstamas

Orai ataskaitas ir orų prognozės (METAR, TAF).

turimą stotys yra geltonos ir raudonos taškus žemėlapyje.

Perkelti pele per norėdami pamatyti stoties vardą.

Tada spustelėkite, norėdami matyti oro stebėjimo ir prognozės.

Norėdami pakeisti žemėlapį: spustelėkite ant žalios mygtukų su juodo kryžiaus žemyn,; žalią mygtuką su brūkšneliu, jei norite nutolinti; arba žalių rodyklių gretimoms žemėlapius.


METAR-TAF: